createdAt,value
2018-06-25T00:00:19.047Z,6.37
2018-06-25T00:02:46.027Z,10.03
2018-06-25T00:05:12.950Z,6.00
2018-06-25T00:07:39.823Z,4.67
2018-06-25T00:10:06.786Z,6.20
2018-06-25T00:12:34.771Z,7.77
2018-06-25T00:15:01.719Z,4.73
2018-06-25T00:17:28.681Z,4.20
2018-06-25T00:19:55.626Z,8.10
2018-06-25T00:22:23.222Z,6.90
2018-06-25T00:24:52.223Z,8.80
2018-06-25T00:27:19.191Z,5.73
2018-06-25T00:29:46.143Z,4.70
2018-06-25T00:32:13.091Z,4.57
2018-06-25T00:34:40.069Z,6.10
2018-06-25T00:37:07.031Z,4.67
2018-06-25T00:39:33.963Z,5.70
2018-06-25T00:42:02.974Z,4.80
2018-06-25T00:44:29.930Z,5.50
2018-06-25T00:46:57.922Z,6.27
2018-06-25T00:49:24.880Z,6.20
2018-06-25T00:51:51.851Z,7.67
2018-06-25T00:54:18.795Z,8.43
2018-06-25T00:56:45.755Z,5.00
2018-06-25T00:59:24.289Z,6.13
2018-06-25T01:01:51.587Z,5.40
2018-06-25T01:04:18.482Z,6.60
2018-06-25T01:06:45.451Z,7.30
2018-06-25T01:09:12.627Z,5.73
2018-06-25T01:11:39.661Z,7.93
2018-06-25T01:14:06.647Z,6.33
2018-06-25T01:16:33.654Z,5.90
2018-06-25T01:19:00.676Z,9.30
2018-06-25T01:21:27.638Z,6.57
2018-06-25T01:23:54.591Z,6.60
2018-06-25T01:26:21.511Z,5.73
2018-06-25T01:28:48.503Z,5.57
2018-06-25T01:31:15.455Z,6.13
2018-06-25T01:33:43.339Z,8.73
2018-06-25T01:36:10.287Z,6.60
2018-06-25T01:38:37.253Z,7.93
2018-06-25T01:41:04.194Z,7.90
2018-06-25T01:43:31.184Z,8.43
2018-06-25T01:46:00.179Z,7.53
2018-06-25T01:48:27.134Z,5.53
2018-06-25T01:50:54.107Z,6.57
2018-06-25T01:53:21.046Z,8.10
2018-06-25T01:55:48.019Z,5.57
2018-06-25T01:58:16.811Z,6.20
2018-06-25T02:00:45.305Z,6.23
2018-06-25T02:03:12.274Z,9.90
2018-06-25T02:05:39.231Z,7.93
2018-06-25T02:08:06.172Z,6.20
2018-06-25T02:10:33.827Z,5.70
2018-06-25T02:13:00.914Z,6.60
2018-06-25T02:15:27.875Z,6.40
2018-06-25T02:17:56.776Z,6.30
2018-06-25T02:20:23.714Z,6.47
2018-06-25T02:22:50.691Z,7.70
2018-06-25T02:25:17.652Z,7.53
2018-06-25T02:27:44.606Z,6.33
2018-06-25T02:30:11.562Z,6.77
2018-06-25T02:32:38.500Z,9.07
2018-06-25T02:35:05.502Z,8.40
2018-06-25T02:37:32.445Z,8.67
2018-06-25T02:39:59.404Z,11.40
2018-06-25T02:42:26.354Z,9.40
2018-06-25T02:44:53.275Z,8.20
2018-06-25T02:47:20.296Z,11.40
2018-06-25T02:49:47.240Z,7.77
2018-06-25T02:52:14.809Z,9.50
2018-06-25T02:54:41.772Z,8.40
2018-06-25T02:57:08.727Z,8.77
2018-06-25T02:59:35.683Z,10.50
2018-06-25T03:02:02.655Z,8.20
2018-06-25T03:04:29.600Z,8.40
2018-06-25T03:06:56.523Z,9.67
2018-06-25T03:09:23.523Z,11.23
2018-06-25T03:11:51.487Z,9.00
2018-06-25T03:14:18.456Z,9.63
2018-06-25T03:16:45.411Z,9.80
2018-06-25T03:19:12.339Z,8.90
2018-06-25T03:21:39.383Z,10.83
2018-06-25T03:24:06.290Z,10.17
2018-06-25T03:26:33.258Z,9.57
2018-06-25T03:29:00.200Z,10.53
2018-06-25T03:31:27.147Z,11.77
2018-06-25T03:33:54.827Z,14.50
2018-06-25T03:36:21.775Z,10.73
2018-06-25T03:38:48.747Z,10.37
2018-06-25T03:41:15.696Z,11.23
2018-06-25T03:43:42.674Z,16.03
2018-06-25T03:46:09.631Z,11.30
2018-06-25T03:48:37.606Z,13.20
2018-06-25T03:51:04.622Z,11.07
2018-06-25T03:53:32.683Z,12.00
2018-06-25T03:55:59.612Z,10.87
2018-06-25T03:58:26.568Z,13.57
2018-06-25T04:00:53.487Z,12.40
2018-06-25T04:03:20.471Z,16.33
2018-06-25T04:05:47.470Z,11.90
2018-06-25T04:08:14.491Z,11.80
2018-06-25T04:10:41.443Z,10.80
2018-06-25T04:13:08.423Z,14.40
2018-06-25T04:15:35.452Z,16.13
2018-06-25T04:18:03.451Z,14.20
2018-06-25T04:20:30.441Z,11.50
2018-06-25T04:22:57.366Z,9.83
2018-06-25T04:25:24.335Z,12.30
2018-06-25T04:27:51.272Z,13.77
2018-06-25T04:30:18.131Z,10.17
2018-06-25T04:32:45.095Z,11.20
2018-06-25T04:35:13.067Z,9.73
2018-06-25T04:37:42.005Z,14.60
2018-06-25T04:40:09.995Z,9.40
2018-06-25T04:42:37.811Z,8.57
2018-06-25T04:45:06.066Z,9.03
2018-06-25T04:47:36.787Z,7.27
2018-06-25T04:50:03.743Z,8.10
2018-06-25T04:52:30.659Z,19.73
2018-06-25T04:54:58.667Z,6.80
2018-06-25T04:57:26.318Z,7.43
2018-06-25T04:59:53.341Z,6.17
2018-06-25T05:02:21.310Z,10.10
2018-06-25T05:04:48.215Z,9.60
2018-06-25T05:07:15.067Z,6.23
2018-06-25T05:09:41.945Z,6.37
2018-06-25T05:12:08.795Z,6.73
2018-06-25T05:14:35.659Z,6.63
2018-06-25T05:17:02.526Z,6.70
2018-06-25T05:19:29.383Z,6.90
2018-06-25T05:21:56.238Z,7.13
2018-06-25T05:24:23.103Z,6.10
2018-06-25T05:26:49.967Z,6.20
2018-06-25T05:29:16.861Z,7.87
2018-06-25T05:31:43.689Z,7.37
2018-06-25T05:34:10.624Z,7.00
2018-06-25T05:36:37.503Z,6.47
2018-06-25T05:39:07.227Z,7.03
2018-06-25T05:41:34.095Z,7.03
2018-06-25T05:44:00.971Z,7.13
2018-06-25T05:46:27.827Z,7.90
2018-06-25T05:48:54.716Z,7.90
2018-06-25T05:51:21.571Z,7.30
2018-06-25T05:53:48.436Z,6.70
2018-06-25T05:56:15.314Z,7.93
2018-06-25T05:58:42.174Z,7.03
2018-06-25T06:01:09.044Z,7.00
2018-06-25T06:03:35.926Z,8.43
2018-06-25T06:06:02.798Z,6.77
2018-06-25T06:08:29.659Z,6.67
2018-06-25T06:10:56.559Z,10.80
2018-06-25T06:13:23.411Z,7.15
2018-06-25T06:15:50.274Z,12.77
2018-06-25T06:18:17.148Z,8.60
2018-06-25T06:20:44.036Z,7.33
2018-06-25T06:23:10.903Z,6.60
2018-06-25T06:25:37.856Z,7.10
2018-06-25T06:28:05.411Z,9.53
2018-06-25T06:30:32.266Z,6.23
2018-06-25T06:32:59.135Z,6.47
2018-06-25T06:35:25.986Z,6.93
2018-06-25T06:37:52.835Z,7.70
2018-06-25T06:40:19.706Z,9.73
2018-06-25T06:42:46.583Z,6.70
2018-06-25T06:45:13.448Z,10.20
2018-06-25T06:47:40.291Z,6.50
2018-06-25T06:50:07.168Z,8.73
2018-06-25T06:52:34.037Z,8.23
2018-06-25T06:55:00.893Z,7.27
2018-06-25T06:57:27.799Z,15.93
2018-06-25T06:59:54.623Z,7.92
2018-06-25T07:02:22.481Z,11.73
2018-06-25T07:04:49.360Z,7.67
2018-06-25T07:07:17.183Z,8.93
2018-06-25T07:09:44.048Z,7.80
2018-06-25T07:12:10.903Z,6.40
2018-06-25T07:14:37.782Z,8.00
2018-06-25T07:17:04.647Z,6.73
2018-06-25T07:19:31.491Z,13.00
2018-06-25T07:21:58.355Z,6.67
2018-06-25T07:24:25.239Z,6.10
2018-06-25T07:26:52.101Z,8.33
2018-06-25T07:29:18.963Z,7.90
2018-06-25T07:31:45.811Z,7.50
2018-06-25T07:34:12.661Z,6.30
2018-06-25T07:36:39.524Z,6.30
2018-06-25T07:39:07.830Z,6.47
2018-06-25T07:41:34.698Z,7.63
2018-06-25T07:44:01.556Z,8.70
2018-06-25T07:46:28.411Z,12.70
2018-06-25T07:48:55.332Z,8.43
2018-06-25T07:51:22.142Z,11.20
2018-06-25T07:53:49.001Z,6.97
2018-06-25T07:56:15.855Z,5.83
2018-06-25T07:58:42.715Z,6.57
2018-06-25T08:01:09.573Z,6.73
2018-06-25T08:03:36.453Z,5.73
2018-06-25T08:06:03.291Z,4.70
2018-06-25T08:08:30.131Z,6.60
2018-06-25T08:10:57.000Z,4.70
2018-06-25T08:13:23.856Z,6.73
2018-06-25T08:15:50.721Z,4.73
2018-06-25T08:18:18.579Z,5.67
2018-06-25T08:20:45.507Z,3.47
2018-06-25T08:23:16.639Z,3.67
2018-06-25T08:25:45.679Z,4.80
2018-06-25T08:28:12.635Z,3.97
2018-06-25T08:30:42.546Z,5.20
2018-06-25T08:33:11.044Z,4.60
2018-06-25T08:35:39.046Z,4.50
2018-06-25T08:38:06.467Z,3.57
2018-06-25T08:40:38.459Z,4.87
2018-06-25T08:43:05.457Z,9.27
2018-06-25T08:45:33.406Z,3.77
2018-06-25T08:48:00.983Z,4.60
2018-06-25T08:50:39.786Z,4.10
2018-06-25T08:53:06.783Z,3.97
2018-06-25T08:55:34.793Z,10.37
2018-06-25T08:58:05.479Z,5.13
2018-06-25T09:00:32.467Z,5.10
2018-06-25T09:03:00.509Z,3.63
2018-06-25T09:05:27.408Z,6.00
2018-06-25T09:07:55.087Z,3.03
2018-06-25T09:10:23.059Z,3.17
2018-06-25T09:12:51.574Z,3.60
2018-06-25T09:15:19.105Z,3.00
2018-06-25T09:17:49.471Z,3.53
2018-06-25T09:20:19.090Z,5.70
2018-06-25T09:22:47.593Z,2.80
2018-06-25T09:25:16.101Z,3.13
2018-06-25T09:27:49.176Z,5.00
2018-06-25T09:30:18.998Z,2.00
2018-06-25T09:32:45.986Z,2.23
2018-06-25T09:35:12.982Z,3.70
2018-06-25T09:37:40.911Z,2.60
2018-06-25T09:40:08.676Z,1.60
2018-06-25T09:42:35.738Z,1.60
2018-06-25T09:45:03.215Z,1.97
2018-06-25T09:47:30.198Z,4.67
2018-06-25T09:49:58.160Z,4.30
2018-06-25T09:52:27.072Z,1.70
2018-06-25T09:54:54.077Z,4.03
2018-06-25T09:57:21.576Z,2.20
2018-06-25T09:59:48.552Z,2.40
2018-06-25T10:02:15.499Z,3.90
2018-06-25T10:04:42.445Z,5.33
2018-06-25T10:07:11.060Z,1.93
2018-06-25T10:09:47.975Z,3.70
2018-06-25T10:14:53.665Z,3.80
2018-06-25T10:17:21.669Z,2.05
2018-06-25T10:19:48.625Z,5.40
2018-06-25T10:22:15.569Z,2.30
2018-06-25T10:24:44.090Z,1.90
2018-06-25T10:27:11.023Z,2.60
2018-06-25T10:29:37.974Z,2.43
2018-06-25T10:32:05.719Z,1.90
2018-06-25T10:34:32.610Z,3.40
2018-06-25T10:36:59.591Z,4.07
2018-06-25T10:39:26.603Z,2.03
2018-06-25T10:41:53.602Z,1.50
2018-06-25T10:44:22.238Z,2.65
2018-06-25T10:46:49.123Z,1.90
2018-06-25T10:49:15.982Z,1.77
2018-06-25T10:51:43.920Z,2.93
2018-06-25T10:54:24.403Z,1.30
2018-06-25T10:56:51.313Z,1.93
2018-06-25T10:59:19.145Z,1.37
2018-06-25T11:01:46.080Z,2.10
2018-06-25T11:04:12.969Z,1.57
2018-06-25T11:06:46.222Z,1.03
2018-06-25T11:09:13.167Z,7.03
2018-06-25T11:11:41.669Z,1.73
2018-06-25T11:14:09.630Z,1.03
2018-06-25T11:16:36.494Z,1.40
2018-06-25T11:19:03.507Z,2.03
2018-06-25T11:21:30.394Z,1.40
2018-06-25T11:23:58.098Z,0.80
2018-06-25T11:26:29.667Z,1.47
2018-06-25T11:28:56.597Z,4.80
2018-06-25T11:31:24.601Z,4.53
2018-06-25T11:33:51.562Z,1.00
2018-06-25T11:36:19.953Z,0.90
2018-06-25T11:38:46.949Z,1.10
2018-06-25T11:41:13.860Z,2.17
2018-06-25T11:43:41.675Z,2.13
2018-06-25T11:46:08.593Z,3.60
2018-06-25T11:48:36.154Z,0.80
2018-06-25T11:51:06.334Z,0.90
2018-06-25T11:53:34.127Z,2.20
2018-06-25T11:56:01.105Z,1.67
2018-06-25T11:58:29.102Z,4.23
2018-06-25T12:00:59.055Z,1.87
2018-06-25T12:03:27.127Z,1.73
2018-06-25T12:05:59.986Z,0.97
2018-06-25T12:08:27.686Z,2.00
2018-06-25T12:10:54.650Z,1.40
2018-06-25T12:13:21.691Z,0.67
2018-06-25T12:15:50.166Z,0.90
2018-06-25T12:18:17.633Z,0.83
2018-06-25T12:20:44.621Z,3.83
2018-06-25T12:23:11.706Z,0.87
2018-06-25T12:25:42.126Z,1.93
2018-06-25T12:28:09.082Z,2.87
2018-06-25T12:30:41.670Z,1.00
2018-06-25T12:33:08.614Z,1.02
2018-06-25T12:35:39.254Z,1.70
2018-06-25T12:38:06.210Z,1.10
2018-06-25T12:40:33.707Z,0.73
2018-06-25T12:43:03.750Z,0.80
2018-06-25T12:45:32.117Z,2.73
2018-06-25T12:48:00.602Z,0.80
2018-06-25T12:50:28.155Z,0.97
2018-06-25T12:52:55.144Z,1.47
2018-06-25T12:55:24.053Z,0.80
2018-06-25T12:57:52.650Z,4.10
2018-06-25T13:00:20.186Z,2.80
2018-06-25T13:02:47.166Z,1.20
2018-06-25T13:05:16.612Z,1.77
2018-06-25T13:07:45.186Z,0.73
2018-06-25T13:10:12.186Z,0.87
2018-06-25T13:12:42.690Z,0.70
2018-06-25T13:15:11.174Z,1.60
2018-06-25T13:17:38.668Z,1.00
2018-06-25T13:20:06.235Z,1.20
2018-06-25T13:22:34.231Z,1.30
2018-06-25T13:25:01.674Z,2.23
2018-06-25T13:27:29.274Z,1.20
2018-06-25T13:29:57.242Z,1.00
2018-06-25T13:32:31.457Z,2.83
2018-06-25T13:34:58.407Z,0.90
2018-06-25T13:37:27.407Z,1.53
2018-06-25T13:39:54.377Z,3.10
2018-06-25T13:42:21.309Z,1.73
2018-06-25T13:44:50.229Z,1.13
2018-06-25T13:47:17.181Z,1.00
2018-06-25T13:49:45.206Z,1.00
2018-06-25T13:52:12.755Z,1.00
2018-06-25T13:54:40.406Z,1.00
2018-06-25T13:57:08.385Z,1.80
2018-06-25T13:59:40.181Z,0.70
2018-06-25T14:02:07.298Z,3.47
2018-06-25T14:04:36.534Z,2.47
2018-06-25T14:07:04.418Z,0.80
2018-06-25T14:09:31.382Z,0.80
2018-06-25T14:12:03.296Z,1.13
2018-06-25T14:14:31.433Z,1.33
2018-06-25T14:17:02.504Z,1.00
2018-06-25T14:19:29.511Z,1.73
2018-06-25T14:21:56.475Z,8.10
2018-06-25T14:24:31.289Z,3.30
2018-06-25T14:27:06.609Z,1.10
2018-06-25T14:29:40.098Z,1.10
2018-06-25T14:32:16.918Z,2.60
2018-06-25T14:34:55.615Z,0.93
2018-06-25T14:37:23.004Z,0.97
2018-06-25T14:39:50.286Z,2.47
2018-06-25T14:42:17.247Z,0.90
2018-06-25T14:44:44.202Z,1.47
2018-06-25T14:49:47.194Z,1.00
2018-06-25T14:52:14.084Z,1.93
2018-06-25T14:54:42.775Z,1.00
2018-06-25T14:57:11.174Z,0.90
2018-06-25T14:59:38.724Z,4.33
2018-06-25T15:02:12.406Z,3.80
2018-06-25T15:04:40.257Z,0.87
2018-06-25T15:07:10.238Z,1.00
2018-06-25T15:09:37.744Z,1.73
2018-06-25T15:12:06.275Z,2.20
2018-06-25T15:14:35.797Z,2.70
2018-06-25T15:17:05.834Z,2.43
2018-06-25T15:19:44.610Z,1.30
2018-06-25T15:22:11.530Z,5.23
2018-06-25T15:24:40.283Z,1.30
2018-06-25T15:27:09.733Z,1.30
2018-06-25T15:29:37.316Z,1.30
2018-06-25T15:32:07.299Z,2.33
2018-06-25T15:34:34.767Z,3.10
2018-06-25T15:37:03.762Z,1.30
2018-06-25T15:39:34.393Z,1.53
2018-06-25T15:42:07.505Z,0.80
2018-06-25T15:44:35.271Z,2.00
2018-06-25T15:47:04.802Z,1.77
2018-06-25T15:49:32.242Z,1.10
2018-06-25T15:51:59.223Z,1.20
2018-06-25T15:54:27.245Z,2.70
2018-06-25T15:56:54.782Z,2.90
2018-06-25T15:59:29.006Z,1.47
2018-06-25T16:01:58.833Z,2.53
2018-06-25T16:04:29.913Z,5.00
2018-06-25T16:06:57.868Z,1.30
2018-06-25T16:09:28.714Z,0.93
2018-06-25T16:11:55.691Z,0.80
2018-06-25T16:14:22.670Z,1.67
2018-06-25T16:16:49.566Z,1.00
2018-06-25T16:19:17.214Z,4.53
2018-06-25T16:21:44.123Z,1.07
2018-06-25T16:24:11.124Z,3.67
2018-06-25T16:26:41.635Z,5.07
2018-06-25T16:29:14.802Z,3.80
2018-06-25T16:31:45.257Z,1.20
2018-06-25T16:34:12.943Z,1.87
2018-06-25T16:36:42.761Z,0.87
2018-06-25T16:39:11.103Z,2.70
2018-06-25T16:41:39.881Z,1.13
2018-06-25T16:44:08.129Z,2.37
2018-06-25T16:46:37.337Z,1.70
2018-06-25T16:49:06.447Z,1.30
2018-06-25T16:51:33.382Z,2.23
2018-06-25T16:54:04.054Z,3.23
2018-06-25T16:56:33.124Z,3.93
2018-06-25T16:59:03.770Z,1.90
2018-06-25T17:01:33.883Z,1.80
2018-06-25T17:04:01.809Z,1.63
2018-06-25T17:06:28.771Z,2.73
2018-06-25T17:08:59.530Z,2.50
2018-06-25T17:11:44.484Z,2.43
2018-06-25T17:14:17.727Z,1.50
2018-06-25T17:16:50.719Z,1.50
2018-06-25T17:19:20.811Z,1.40
2018-06-25T17:21:51.687Z,1.93
2018-06-25T17:24:22.368Z,1.40
2018-06-25T17:26:57.926Z,1.73
2018-06-25T17:29:24.863Z,1.83
2018-06-25T17:31:51.813Z,1.83
2018-06-25T17:34:18.837Z,2.83
2018-06-25T17:36:49.318Z,3.20
2018-06-25T17:42:11.734Z,1.57
2018-06-25T17:44:39.186Z,1.60
2018-06-25T17:47:07.142Z,1.53
2018-06-25T17:49:34.790Z,1.93
2018-06-25T17:52:05.775Z,5.00
2018-06-25T17:54:32.786Z,3.67
2018-06-25T17:57:03.918Z,4.07
2018-06-25T17:59:34.842Z,4.20
2018-06-25T18:02:05.373Z,3.20
2018-06-25T18:04:34.887Z,1.70
2018-06-25T18:07:03.362Z,7.20
2018-06-25T18:09:30.848Z,1.50
2018-06-25T18:11:57.819Z,4.30
2018-06-25T18:14:27.750Z,1.90
2018-06-25T18:16:54.692Z,2.70
2018-06-25T18:19:27.945Z,2.80
2018-06-25T18:21:54.867Z,3.67
2018-06-25T18:24:21.765Z,5.03
2018-06-25T18:26:48.677Z,2.47
2018-06-25T18:29:15.631Z,1.60
2018-06-25T18:31:42.583Z,5.90
2018-06-25T18:34:09.542Z,2.70
2018-06-25T18:36:38.555Z,1.90
2018-06-25T18:39:07.345Z,1.90
2018-06-25T18:41:34.845Z,4.87
2018-06-25T18:44:01.782Z,5.37
2018-06-25T18:46:35.522Z,2.30
2018-06-25T18:49:05.695Z,3.33
2018-06-25T18:51:32.882Z,2.33
2018-06-25T18:53:59.830Z,2.20
2018-06-25T18:56:26.741Z,1.50
2018-06-25T18:58:53.631Z,1.33
2018-06-25T19:01:26.770Z,6.30
2018-06-25T19:03:53.918Z,2.92
2018-06-25T19:06:20.878Z,1.60
2018-06-25T19:08:47.806Z,1.40
2018-06-25T19:11:14.786Z,4.70
2018-06-25T19:13:44.766Z,3.53
2018-06-25T19:16:11.686Z,2.20
2018-06-25T19:18:38.770Z,1.90
2018-06-25T19:21:05.725Z,2.10
2018-06-25T19:23:32.732Z,2.77
2018-06-25T19:25:59.594Z,3.00
2018-06-25T19:28:26.561Z,2.00
2018-06-25T19:30:53.526Z,2.37
2018-06-25T19:33:20.461Z,3.47
2018-06-25T19:35:48.310Z,3.47
2018-06-25T19:38:15.213Z,3.97
2018-06-25T19:40:42.178Z,5.90
2018-06-25T19:43:09.141Z,4.87
2018-06-25T19:45:36.013Z,8.50
2018-06-25T19:48:03.882Z,4.33
2018-06-25T19:50:31.847Z,3.20
2018-06-25T19:53:00.877Z,3.07
2018-06-25T19:55:28.008Z,7.10
2018-06-25T19:57:54.969Z,3.70
2018-06-25T20:00:21.929Z,3.67
2018-06-25T20:02:48.925Z,5.83
2018-06-25T20:05:15.867Z,3.97
2018-06-25T20:07:42.859Z,7.23
2018-06-25T20:10:14.384Z,9.03
2018-06-25T20:12:41.907Z,3.90
2018-06-25T20:15:08.914Z,4.10
2018-06-25T20:17:36.882Z,5.93
2018-06-25T20:20:07.002Z,4.87
2018-06-25T20:22:34.018Z,5.90
2018-06-25T20:25:01.968Z,5.00
2018-06-25T20:27:29.418Z,9.03
2018-06-25T20:29:58.134Z,5.50
2018-06-25T20:32:25.067Z,8.73
2018-06-25T20:34:53.060Z,8.13
2018-06-25T20:37:26.366Z,7.13
2018-06-25T20:39:56.282Z,5.10
2018-06-25T20:42:24.258Z,6.10
2018-06-25T20:44:52.258Z,7.20
2018-06-25T20:47:19.284Z,7.33
2018-06-25T20:49:49.244Z,14.57
2018-06-25T20:52:17.198Z,10.00
2018-06-25T20:54:45.918Z,8.47
2018-06-25T20:57:12.870Z,7.77
2018-06-25T20:59:40.862Z,7.80
2018-06-25T21:02:08.826Z,11.20
2018-06-25T21:04:37.435Z,8.80
2018-06-25T21:07:04.390Z,6.90
2018-06-25T21:09:31.965Z,7.47
2018-06-25T21:12:00.974Z,10.03
2018-06-25T21:14:28.946Z,8.00
2018-06-25T21:16:59.447Z,8.03
2018-06-25T21:19:26.355Z,6.53
2018-06-25T21:21:54.314Z,13.30
2018-06-25T21:24:22.905Z,12.33
2018-06-25T21:26:50.463Z,8.07
2018-06-25T21:29:17.333Z,9.57
2018-06-25T21:31:44.926Z,9.63
2018-06-25T21:34:12.493Z,10.80
2018-06-25T21:36:39.927Z,9.57
2018-06-25T21:39:09.221Z,9.23
2018-06-25T21:41:39.467Z,8.40
2018-06-25T21:44:06.462Z,13.50
2018-06-25T21:46:34.993Z,10.27
2018-06-25T21:49:07.954Z,10.37
2018-06-25T21:51:36.438Z,10.60
2018-06-25T21:54:03.511Z,14.60
2018-06-25T21:56:30.478Z,8.70
2018-06-25T21:58:57.418Z,10.03
2018-06-25T22:01:27.351Z,12.10
2018-06-25T22:03:54.337Z,10.83
2018-06-25T22:06:23.348Z,7.87
2018-06-25T22:08:51.986Z,10.53
2018-06-25T22:11:18.976Z,9.70
2018-06-25T22:13:45.940Z,11.00
2018-06-25T22:16:12.906Z,14.03
2018-06-25T22:18:39.835Z,12.37
2018-06-25T22:21:07.498Z,13.13
2018-06-25T22:23:34.477Z,11.20
2018-06-25T22:26:05.253Z,10.40
2018-06-25T22:28:32.181Z,11.17
2018-06-25T22:31:00.150Z,13.00
2018-06-25T22:33:27.999Z,12.27
2018-06-25T22:36:02.273Z,10.90
2018-06-25T22:38:35.367Z,16.87
2018-06-25T22:41:03.034Z,12.93
2018-06-25T22:43:30.499Z,15.40
2018-06-25T22:45:57.475Z,14.40
2018-06-25T22:48:42.063Z,12.77
2018-06-25T22:51:13.311Z,13.27
2018-06-25T22:53:40.970Z,13.53
2018-06-25T22:56:07.917Z,13.77
2018-06-25T22:58:35.517Z,17.60
2018-06-25T23:01:02.982Z,12.80
2018-06-25T23:03:29.937Z,12.37
2018-06-25T23:05:59.543Z,16.05
2018-06-25T23:08:29.476Z,16.53
2018-06-25T23:10:56.435Z,16.30
2018-06-25T23:13:23.425Z,16.30
2018-06-25T23:15:50.364Z,14.77
2018-06-25T23:18:18.394Z,15.60
2018-06-25T23:20:46.061Z,16.00
2018-06-25T23:23:13.511Z,18.13
2018-06-25T23:25:40.470Z,14.90
2018-06-25T23:28:17.203Z,17.00
2018-06-25T23:30:45.042Z,15.33
2018-06-25T23:33:12.034Z,17.03
2018-06-25T23:35:39.530Z,15.70
2018-06-25T23:38:08.007Z,17.30
2018-06-25T23:40:36.510Z,15.10
2018-06-25T23:43:04.428Z,15.17
2018-06-25T23:45:33.110Z,20.67
2018-06-25T23:48:01.057Z,14.83
2018-06-25T23:50:28.030Z,15.57
2018-06-25T23:52:56.626Z,14.60
2018-06-25T23:55:24.549Z,16.50
2018-06-25T23:57:53.004Z,21.75
